createdAt,value
2022-10-17T00:00:16.995Z,-72
2022-10-17T00:05:19.098Z,-72
2022-10-17T00:10:22.335Z,-70
2022-10-17T00:15:26.877Z,-70
2022-10-17T00:20:30.524Z,-73
2022-10-17T00:25:32.665Z,-73
2022-10-17T00:30:34.697Z,-72
2022-10-17T00:35:37.349Z,-72
2022-10-17T00:40:39.586Z,-72
2022-10-17T00:45:42.315Z,-70
2022-10-17T00:50:48.960Z,-70
2022-10-17T00:55:53.208Z,-70
2022-10-17T01:00:55.199Z,-72
2022-10-17T01:05:57.457Z,-72
2022-10-17T01:11:11.996Z,-72
2022-10-17T01:16:34.698Z,-72
2022-10-17T01:21:50.740Z,-70
2022-10-17T01:27:33.901Z,-71
2022-10-17T01:32:45.358Z,-70
2022-10-17T01:38:11.753Z,-70
2022-10-17T01:43:17.016Z,-70
2022-10-17T01:48:23.856Z,-70
2022-10-17T01:53:32.001Z,-72
2022-10-17T01:58:38.397Z,-72
2022-10-17T02:03:43.655Z,-72
2022-10-17T02:08:48.611Z,-72
2022-10-17T02:14:03.190Z,-73
2022-10-17T02:19:33.641Z,-71
2022-10-17T02:24:48.438Z,-70
2022-10-17T02:30:01.180Z,-72
2022-10-17T02:35:07.478Z,-72
2022-10-17T02:40:11.280Z,-73
2022-10-17T02:45:15.884Z,-71
2022-10-17T02:50:20.061Z,-72
2022-10-17T02:55:28.504Z,-72
2022-10-17T03:00:33.383Z,-72
2022-10-17T03:05:36.021Z,-72
2022-10-17T03:10:37.987Z,-71
2022-10-17T03:15:41.095Z,-71
2022-10-17T03:20:43.793Z,-70
2022-10-17T03:25:45.894Z,-70
2022-10-17T03:30:49.628Z,-72
2022-10-17T03:35:51.673Z,-72
2022-10-17T03:40:57.110Z,-72
2022-10-17T03:46:00.749Z,-72
2022-10-17T03:51:09.215Z,-72
2022-10-17T03:56:22.062Z,-72
2022-10-17T04:01:35.342Z,-72
2022-10-17T04:06:38.300Z,-72
2022-10-17T04:11:40.647Z,-71
2022-10-17T04:16:42.977Z,-70
2022-10-17T04:21:52.602Z,-70
2022-10-17T04:26:55.808Z,-71
2022-10-17T04:32:00.668Z,-72
2022-10-17T04:37:10.933Z,-72
2022-10-17T04:42:13.316Z,-72
2022-10-17T04:47:16.263Z,-72
2022-10-17T04:52:19.033Z,-72
2022-10-17T04:57:24.918Z,-72
2022-10-17T05:02:34.753Z,-72
2022-10-17T05:07:41.587Z,-72
2022-10-17T05:12:49.601Z,-72
2022-10-17T05:18:04.163Z,-72
2022-10-17T05:23:07.981Z,-72
2022-10-17T05:28:14.808Z,-72
2022-10-17T05:33:19.371Z,-72
2022-10-17T05:38:21.680Z,-72
2022-10-17T05:43:25.147Z,-72
2022-10-17T05:48:28.325Z,-72
2022-10-17T05:53:32.965Z,-72
2022-10-17T05:58:50.308Z,-73
2022-10-17T06:04:17.381Z,-72
2022-10-17T06:09:19.501Z,-72
2022-10-17T06:14:24.565Z,-72
2022-10-17T06:19:30.790Z,-72
2022-10-17T06:24:32.968Z,-70
2022-10-17T06:29:39.048Z,-70
2022-10-17T06:34:41.488Z,-70
2022-10-17T06:39:44.385Z,-72
2022-10-17T06:44:53.449Z,-72
2022-10-17T06:50:12.006Z,-75
2022-10-17T06:55:22.651Z,-72
2022-10-17T07:00:48.481Z,-74
2022-10-17T07:05:56.913Z,-74
2022-10-17T07:11:09.316Z,-75
2022-10-17T07:16:12.467Z,-75
2022-10-17T07:21:15.904Z,-75
2022-10-17T07:26:19.694Z,-74
2022-10-17T07:31:24.086Z,-75
2022-10-17T07:36:26.922Z,-74
2022-10-17T07:41:30.493Z,-75
2022-10-17T07:46:39.030Z,-75
2022-10-17T07:51:41.974Z,-75
2022-10-17T07:56:44.116Z,-75
2022-10-17T08:01:46.404Z,-76
2022-10-17T08:06:50.827Z,-75
2022-10-17T08:11:55.368Z,-76
2022-10-17T08:16:57.537Z,-74
2022-10-17T08:21:59.600Z,-75
2022-10-17T08:27:01.714Z,-74
2022-10-17T08:32:06.509Z,-75
2022-10-17T08:42:13.107Z,-71
2022-10-17T08:47:20.927Z,-71
2022-10-17T08:52:45.109Z,-70
2022-10-17T08:57:48.174Z,-72
2022-10-17T09:03:14.724Z,-71
2022-10-17T09:08:53.132Z,-72
2022-10-17T09:14:13.337Z,-71
2022-10-17T09:19:30.429Z,-74
2022-10-17T09:24:51.137Z,-75
2022-10-17T09:30:21.508Z,-75
2022-10-17T09:35:38.377Z,-71
2022-10-17T09:40:40.821Z,-70
2022-10-17T09:46:00.337Z,-71
2022-10-17T09:51:21.719Z,-71
2022-10-17T09:56:24.314Z,-71
2022-10-17T10:01:30.759Z,-71
2022-10-17T10:06:32.822Z,-71
2022-10-17T10:11:49.940Z,-72
2022-10-17T10:16:53.759Z,-72
2022-10-17T10:21:58.437Z,-72
2022-10-17T10:27:04.247Z,-71
2022-10-17T10:32:17.349Z,-71
2022-10-17T10:37:27.446Z,-71
2022-10-17T10:42:33.030Z,-70
2022-10-17T10:47:35.644Z,-70
2022-10-17T10:52:47.837Z,-71
2022-10-17T10:57:53.120Z,-74
2022-10-17T11:03:13.689Z,-74
2022-10-17T11:08:43.275Z,-74
2022-10-17T11:13:54.932Z,-71
2022-10-17T11:19:16.687Z,-72
2022-10-17T11:24:25.434Z,-71
2022-10-17T11:29:36.303Z,-71
2022-10-17T11:34:46.608Z,-71
2022-10-17T11:39:56.412Z,-71
2022-10-17T11:45:20.652Z,-71
2022-10-17T11:56:03.113Z,-71
2022-10-17T12:01:31.917Z,-71
2022-10-17T12:06:48.753Z,-71
2022-10-17T12:11:54.310Z,-72
2022-10-17T12:16:56.290Z,-71
2022-10-17T12:22:19.044Z,-75
2022-10-17T12:27:33.362Z,-74
2022-10-17T12:32:53.340Z,-75
2022-10-17T12:38:16.680Z,-73
2022-10-17T12:43:18.624Z,-70
2022-10-17T12:48:39.062Z,-67
2022-10-17T12:53:47.472Z,-74
2022-10-17T12:58:51.750Z,-74
2022-10-17T13:03:56.035Z,-75
2022-10-17T13:09:05.573Z,-72
2022-10-17T13:14:16.429Z,-72
2022-10-17T13:19:23.573Z,-72
2022-10-17T13:24:30.493Z,-71
2022-10-17T13:29:32.991Z,-71
2022-10-17T13:34:35.801Z,-72
2022-10-17T13:39:55.223Z,-71
2022-10-17T13:44:59.112Z,-75
2022-10-17T13:50:01.202Z,-74
2022-10-17T13:55:17.552Z,-74
2022-10-17T14:00:23.011Z,-75
2022-10-17T14:05:25.605Z,-74
2022-10-17T14:10:37.460Z,-72
2022-10-17T14:15:45.864Z,-72
2022-10-17T14:26:21.136Z,-71
2022-10-17T14:31:32.217Z,-71
2022-10-17T14:36:38.393Z,-71
2022-10-17T14:41:47.713Z,-71
2022-10-17T14:46:57.962Z,-71
2022-10-17T14:52:17.993Z,-71
2022-10-17T14:57:35.113Z,-72
2022-10-17T15:02:37.330Z,-72
2022-10-17T15:07:39.552Z,-71
2022-10-17T15:12:51.064Z,-71
2022-10-17T15:18:00.970Z,-71
2022-10-17T15:23:03.989Z,-71
2022-10-17T15:28:07.649Z,-74
2022-10-17T15:33:09.713Z,-75
2022-10-17T15:38:17.927Z,-76
2022-10-17T15:43:20.242Z,-75
2022-10-17T15:48:29.325Z,-72
2022-10-17T15:53:31.308Z,-72
2022-10-17T15:58:40.422Z,-72
2022-10-17T16:03:42.614Z,-72
2022-10-17T16:08:49.237Z,-71
2022-10-17T16:13:53.531Z,-71
2022-10-17T16:18:55.745Z,-71
2022-10-17T16:23:57.760Z,-70
2022-10-17T16:29:02.848Z,-74
2022-10-17T16:34:06.556Z,-74
2022-10-17T16:39:08.950Z,-74
2022-10-17T16:44:14.772Z,-72
2022-10-17T16:49:18.204Z,-72
2022-10-17T16:54:20.069Z,-72
2022-10-17T16:59:22.151Z,-72
2022-10-17T17:04:24.344Z,-74
2022-10-17T17:09:26.755Z,-73
2022-10-17T17:14:28.761Z,-75
2022-10-17T17:19:30.809Z,-74
2022-10-17T17:24:39.141Z,-74
2022-10-17T17:29:58.711Z,-72
2022-10-17T17:35:06.062Z,-73
2022-10-17T17:40:08.452Z,-72
2022-10-17T17:45:10.866Z,-73
2022-10-17T17:50:13.479Z,-72
2022-10-17T17:55:15.687Z,-73
2022-10-17T18:00:17.720Z,-73
2022-10-17T18:05:19.701Z,-71
2022-10-17T18:10:22.052Z,-72
2022-10-17T18:15:24.248Z,-71
2022-10-17T18:20:27.746Z,-72
2022-10-17T18:25:29.608Z,-72
2022-10-17T18:30:34.477Z,-72
2022-10-17T18:35:36.569Z,-73
2022-10-17T18:40:38.575Z,-70
2022-10-17T18:45:40.563Z,-71
2022-10-17T18:50:42.801Z,-72
2022-10-17T19:00:52.071Z,-72
2022-10-17T19:05:56.667Z,-72
2022-10-17T19:11:37.613Z,-71
2022-10-17T19:16:48.804Z,-71
2022-10-17T19:21:57.347Z,-70
2022-10-17T19:27:02.679Z,-70
2022-10-17T19:32:12.106Z,-71
2022-10-17T19:37:18.111Z,-72
2022-10-17T19:42:20.296Z,-69
2022-10-17T19:47:22.257Z,-68
2022-10-17T19:52:24.454Z,-71
2022-10-17T19:57:26.501Z,-69
2022-10-17T20:02:28.837Z,-70
2022-10-17T20:07:31.056Z,-69
2022-10-17T20:12:33.680Z,-68
2022-10-17T20:17:35.739Z,-67
2022-10-17T20:22:37.765Z,-76
2022-10-17T20:27:40.022Z,-73
2022-10-17T20:32:42.173Z,-78
2022-10-17T20:37:44.154Z,-75
2022-10-17T20:42:46.238Z,-72
2022-10-17T20:47:52.451Z,-68
2022-10-17T20:53:06.321Z,-69
2022-10-17T20:58:16.673Z,-70
2022-10-17T21:03:18.726Z,-70
2022-10-17T21:08:20.742Z,-73
2022-10-17T21:13:22.989Z,-70
2022-10-17T21:18:25.131Z,-71
2022-10-17T21:23:28.129Z,-69
2022-10-17T21:28:31.165Z,-72
2022-10-17T21:33:33.361Z,-71
2022-10-17T21:38:37.649Z,-69
2022-10-17T21:43:46.613Z,-70
2022-10-17T21:48:49.508Z,-74
2022-10-17T21:53:53.388Z,-75
2022-10-17T21:58:55.860Z,-74
2022-10-17T22:03:59.745Z,-74
2022-10-17T22:09:02.483Z,-74
2022-10-17T22:14:07.688Z,-73
2022-10-17T22:19:11.336Z,-76
2022-10-17T22:24:14.959Z,-76
2022-10-17T22:29:17.139Z,-74
2022-10-17T22:34:19.557Z,-72
2022-10-17T22:39:21.433Z,-75
2022-10-17T22:44:25.431Z,-74
2022-10-17T22:49:27.315Z,-73
2022-10-17T22:54:29.237Z,-73
2022-10-17T22:59:31.196Z,-74
2022-10-17T23:04:33.744Z,-73
2022-10-17T23:09:35.634Z,-73
2022-10-17T23:14:37.973Z,-75
2022-10-17T23:19:40.084Z,-76
2022-10-17T23:24:42.022Z,-75
2022-10-17T23:29:43.897Z,-76
2022-10-17T23:34:45.861Z,-75
2022-10-17T23:39:47.917Z,-75
2022-10-17T23:44:49.893Z,-76
2022-10-17T23:49:52.009Z,-75
2022-10-17T23:54:54.205Z,-71
2022-10-17T23:59:56.117Z,-73
